Time;durP1;ratioP1;P1;durP2;ratioP2;P2;SDS_P1;SDS_P2;PMS_P1;PMS_P2;Temp;Humidity;BMP_temperature;BMP_pressure;BME280_temperature;BME280_humidity;BME280_pressure;Samples;Min_cycle;Max_cycle;Signal;HPM_P1;HPM_P2
2024/04/11 05:38:08;;;;;;;5.88;2.35;;;;;;;;;;2265388;25;20555;-63
2024/04/11 05:39:09;;;;;;;9.15;2.75;;;;;;;;;;2258595;26;20259;-64
2024/04/11 05:40:14;;;;;;;7.88;2.67;;;;;;;;;;2247438;25;20682;-64
2024/04/11 05:46:18;;;;;;;10.52;3.15;;;;;;;;;;2223971;26;20599;-64
2024/04/11 07:03:32;;;;;;;20.67;3.83;;;;;;;;;;2222113;26;21113;-63
2024/04/11 07:04:34;;;;;;;9.30;3.00;;;;;;;;;;2221553;26;20223;-62
2024/04/11 07:05:36;;;;;;;7.65;3.05;;;;;;;;;;2207018;26;20260;-63
2024/04/11 07:06:38;;;;;;;15.38;2.40;;;;;;;;;;2209878;26;20215;-63
2024/04/11 07:07:41;;;;;;;6.30;2.10;;;;;;;;;;2209804;26;20271;-63
2024/04/11 07:08:43;;;;;;;7.75;2.55;;;;;;;;;;2205527;26;21135;-63
2024/04/11 07:09:45;;;;;;;6.80;2.00;;;;;;;;;;2207140;26;20693;-63
2024/04/11 07:10:47;;;;;;;9.95;2.40;;;;;;;;;;2209356;26;20209;-62
2024/04/11 07:11:48;;;;;;;8.55;2.25;;;;;;;;;;2203612;26;20661;-63
2024/04/11 07:12:52;;;;;;;5.97;2.00;;;;;;;;;;2202620;26;20216;-62
2024/04/11 07:13:55;;;;;;;9.82;2.95;;;;;;;;;;2205715;26;20220;-63
2024/04/11 07:14:57;;;;;;;9.68;2.80;;;;;;;;;;2234118;26;20720;-63
2024/04/11 07:16:00;;;;;;;5.18;2.15;;;;;;;;;;2233411;26;20225;-63
2024/04/11 07:17:02;;;;;;;6.40;2.67;;;;;;;;;;2203618;26;20263;-63
2024/04/11 07:18:04;;;;;;;7.93;2.10;;;;;;;;;;2203570;26;20314;-63
2024/04/11 07:19:08;;;;;;;6.30;2.35;;;;;;;;;;2204981;26;20280;-63
2024/04/11 07:20:10;;;;;;;9.63;2.58;;;;;;;;;;2205864;26;20260;-63
2024/04/11 07:21:13;;;;;;;5.05;1.80;;;;;;;;;;2203243;26;20224;-63
2024/04/11 07:22:18;;;;;;;6.53;1.90;;;;;;;;;;2209175;26;20630;-63
2024/04/11 07:23:19;;;;;;;7.78;2.50;;;;;;;;;;2206205;26;20217;-63
2024/04/11 07:24:23;;;;;;;5.55;2.50;;;;;;;;;;2210061;26;20682;-64
2024/04/11 07:25:30;;;;;;;8.10;2.22;;;;;;;;;;2203227;26;20692;-63
2024/04/11 07:26:33;;;;;;;9.57;1.75;;;;;;;;;;2207726;26;20216;-63
2024/04/11 07:27:35;;;;;;;5.55;1.90;;;;;;;;;;2204941;26;20330;-63
2024/04/11 07:28:38;;;;;;;8.90;2.10;;;;;;;;;;2208408;26;21025;-64
2024/04/11 07:29:39;;;;;;;6.28;2.00;;;;;;;;;;2205347;26;20750;-63
2024/04/11 07:30:43;;;;;;;7.85;2.42;;;;;;;;;;2204305;26;20307;-63
2024/04/11 07:31:47;;;;;;;7.97;2.55;;;;;;;;;;2206165;26;20319;-64
2024/04/11 07:32:49;;;;;;;8.80;2.38;;;;;;;;;;2207581;26;20255;-64
2024/04/11 07:33:51;;;;;;;9.98;2.58;;;;;;;;;;2232606;26;20207;-64
2024/04/11 07:34:53;;;;;;;8.63;2.05;;;;;;;;;;2233435;26;20673;-63
2024/04/11 07:35:55;;;;;;;8.98;2.33;;;;;;;;;;2205502;26;20268;-64
2024/04/11 07:36:56;;;;;;;7.40;2.65;;;;;;;;;;2210357;26;20221;-63
2024/04/11 07:37:58;;;;;;;9.05;1.98;;;;;;;;;;2207502;26;20291;-63
2024/04/11 07:39:01;;;;;;;12.95;2.38;;;;;;;;;;2210431;26;20325;-63
2024/04/11 07:40:07;;;;;;;6.38;1.83;;;;;;;;;;2202240;26;20268;-64
2024/04/11 07:41:17;;;;;;;13.48;2.72;;;;;;;;;;2205750;26;20320;-64
2024/04/11 07:42:19;;;;;;;8.23;2.30;;;;;;;;;;2208655;26;20517;-64
2024/04/11 07:43:22;;;;;;;9.65;2.33;;;;;;;;;;2204437;26;20260;-64
2024/04/11 07:44:24;;;;;;;11.55;2.25;;;;;;;;;;2202633;26;20270;-64
2024/04/11 07:45:30;;;;;;;9.43;2.00;;;;;;;;;;2202852;26;20253;-64
2024/04/11 07:46:33;;;;;;;8.85;2.20;;;;;;;;;;2205015;26;20260;-64
2024/04/11 07:47:47;;;;;;;7.90;1.65;;;;;;;;;;2202936;26;20643;-64
2024/04/11 07:48:59;;;;;;;8.02;1.88;;;;;;;;;;2202540;26;20330;-64
2024/04/11 07:50:01;;;;;;;7.05;2.13;;;;;;;;;;2202511;26;20641;-64
2024/04/11 07:51:05;;;;;;;7.28;2.15;;;;;;;;;;2203676;26;20263;-64
2024/04/11 07:52:10;;;;;;;7.78;1.88;;;;;;;;;;2209841;26;20659;-64
2024/04/11 07:53:15;;;;;;;7.05;1.83;;;;;;;;;;2207957;26;20220;-64
2024/04/11 07:54:17;;;;;;;6.43;1.55;;;;;;;;;;2205205;26;20256;-64
2024/04/11 07:55:34;;;;;;;10.05;2.00;;;;;;;;;;2231125;26;20251;-66
2024/04/11 07:56:35;;;;;;;11.38;3.80;;;;;;;;;;2225322;26;20258;-66
2024/04/11 07:57:38;;;;;;;16.92;5.63;;;;;;;;;;2206070;26;20518;-66
2024/04/11 07:58:40;;;;;;;51.90;30.95;;;;;;;;;;2207159;26;20220;-66
2024/04/11 07:59:41;;;;;;;12.57;4.75;;;;;;;;;;2203547;26;20221;-65
2024/04/11 08:00:47;;;;;;;10.35;2.60;;;;;;;;;;2197181;26;20248;-65
2024/04/11 08:01:49;;;;;;;7.72;2.60;;;;;;;;;;2203153;26;20687;-65
2024/04/11 08:02:56;;;;;;;6.78;1.80;;;;;;;;;;2204966;26;20645;-65
2024/04/11 08:03:58;;;;;;;9.07;2.25;;;;;;;;;;2204140;26;20301;-65
2024/04/11 08:05:00;;;;;;;7.63;2.60;;;;;;;;;;2202666;26;20220;-65
2024/04/11 08:06:01;;;;;;;13.32;3.72;;;;;;;;;;2207979;26;20760;-65
2024/04/11 08:07:03;;;;;;;11.70;2.70;;;;;;;;;;2206116;26;20617;-65
2024/04/11 08:08:05;;;;;;;7.90;2.40;;;;;;;;;;2206388;26;20267;-65
2024/04/11 08:09:07;;;;;;;10.13;2.30;;;;;;;;;;2206905;26;20248;-65
2024/04/11 08:10:09;;;;;;;14.48;2.50;;;;;;;;;;2208431;26;20255;-66
2024/04/11 08:11:10;;;;;;;12.73;2.03;;;;;;;;;;2210444;26;20212;-65
2024/04/11 08:12:12;;;;;;;8.52;2.40;;;;;;;;;;2202999;26;20221;-65
2024/04/11 08:13:13;;;;;;;7.57;2.17;;;;;;;;;;2204971;26;20228;-66
2024/04/11 08:14:15;;;;;;;9.23;2.40;;;;;;;;;;2203226;26;20307;-65
2024/04/11 08:15:16;;;;;;;6.65;2.15;;;;;;;;;;2203329;26;20248;-65
2024/04/11 08:16:18;;;;;;;11.30;1.90;;;;;;;;;;2200494;26;20267;-65
2024/04/11 08:17:20;;;;;;;7.65;2.13;;;;;;;;;;2200452;26;20282;-65
2024/04/11 08:18:22;;;;;;;8.18;2.20;;;;;;;;;;2199647;26;20229;-65
2024/04/11 08:19:24;;;;;;;9.00;2.00;;;;;;;;;;2199371;26;20256;-65
2024/04/11 08:20:25;;;;;;;8.98;2.35;;;;;;;;;;2198625;26;20558;-66
2024/04/11 08:21:27;;;;;;;10.93;1.95;;;;;;;;;;2201133;26;20713;-66
2024/04/11 08:22:29;;;;;;;8.70;2.50;;;;;;;;;;2198557;26;20727;-65
2024/04/11 08:23:30;;;;;;;22.08;2.47;;;;;;;;;;2196775;26;20599;-65
2024/04/11 08:24:32;;;;;;;12.00;2.13;;;;;;;;;;2197889;26;20510;-65
2024/04/11 08:25:34;;;;;;;11.65;2.00;;;;;;;;;;2200310;26;20302;-65
2024/04/11 08:26:37;;;;;;;9.32;1.90;;;;;;;;;;2203688;26;20226;-65
2024/04/11 08:27:39;;;;;;;4.85;1.50;;;;;;;;;;2198023;26;20478;-65
2024/04/11 08:28:41;;;;;;;8.40;1.95;;;;;;;;;;2199815;26;20692;-66
2024/04/11 08:29:43;;;;;;;28.15;2.53;;;;;;;;;;2199291;26;20223;-65
2024/04/11 08:30:48;;;;;;;6.25;2.10;;;;;;;;;;2198722;26;20363;-65
2024/04/11 08:31:50;;;;;;;10.52;2.40;;;;;;;;;;2202865;26;21026;-66
2024/04/11 08:32:52;;;;;;;10.25;1.85;;;;;;;;;;2205561;26;20726;-66
2024/04/11 08:33:57;;;;;;;11.15;3.05;;;;;;;;;;2207601;26;20240;-65
2024/04/11 08:35:01;;;;;;;14.63;2.60;;;;;;;;;;2199518;26;20247;-65
2024/04/11 08:36:08;;;;;;;8.75;1.70;;;;;;;;;;2203065;26;20260;-65
2024/04/11 08:37:10;;;;;;;6.07;1.77;;;;;;;;;;2198930;26;20213;-65
2024/04/11 08:38:15;;;;;;;8.93;1.73;;;;;;;;;;2200051;26;20260;-65
2024/04/11 08:39:16;;;;;;;7.35;1.85;;;;;;;;;;2199022;26;20743;-65
2024/04/11 08:40:19;;;;;;;11.45;1.67;;;;;;;;;;2197682;26;20257;-65
2024/04/11 08:41:20;;;;;;;7.60;2.20;;;;;;;;;;2199411;26;20326;-65
2024/04/11 08:42:22;;;;;;;12.93;2.35;;;;;;;;;;2197645;26;20217;-66
2024/04/11 08:43:27;;;;;;;9.25;1.92;;;;;;;;;;2197523;26;20220;-66
2024/04/11 08:44:30;;;;;;;5.72;2.10;;;;;;;;;;2195866;26;20277;-65
2024/04/11 08:45:34;;;;;;;12.05;2.88;;;;;;;;;;2195031;26;20313;-66
2024/04/11 08:46:35;;;;;;;8.10;2.00;;;;;;;;;;2197483;26;20252;-66
2024/04/11 08:47:37;;;;;;;6.88;2.00;;;;;;;;;;2199490;26;20407;-66
2024/04/11 08:48:39;;;;;;;7.75;2.05;;;;;;;;;;2201741;26;20260;-66
2024/04/11 08:49:41;;;;;;;14.68;2.47;;;;;;;;;;2198774;26;20260;-66
2024/04/11 08:50:46;;;;;;;8.98;1.80;;;;;;;;;;2197802;26;20780;-66
2024/04/11 08:51:48;;;;;;;9.02;2.10;;;;;;;;;;2200425;26;20648;-66
2024/04/11 08:52:51;;;;;;;7.68;1.90;;;;;;;;;;2203845;26;20247;-66
2024/04/11 08:53:56;;;;;;;8.20;2.22;;;;;;;;;;2201655;26;20260;-65
2024/04/11 08:55:06;;;;;;;14.98;3.22;;;;;;;;;;2195953;26;20229;-66
2024/04/11 08:56:09;;;;;;;5.38;1.63;;;;;;;;;;2196456;26;20284;-65
2024/04/11 08:57:11;;;;;;;5.30;1.70;;;;;;;;;;2200540;26;20548;-66
2024/04/11 08:58:14;;;;;;;9.23;2.38;;;;;;;;;;2199876;26;20229;-66
2024/04/11 08:59:16;;;;;;;9.55;2.30;;;;;;;;;;2198211;26;20222;-66
2024/04/11 09:00:21;;;;;;;10.50;2.53;;;;;;;;;;2195482;26;20253;-66
2024/04/11 09:01:23;;;;;;;6.25;1.70;;;;;;;;;;2200664;26;20217;-66
2024/04/11 09:02:25;;;;;;;8.90;1.80;;;;;;;;;;2198145;26;20307;-66
2024/04/11 09:03:26;;;;;;;14.38;1.90;;;;;;;;;;2201409;26;20258;-66
2024/04/11 09:04:28;;;;;;;6.88;2.22;;;;;;;;;;2200961;26;20314;-66
2024/04/11 09:05:29;;;;;;;7.43;1.75;;;;;;;;;;2196185;26;20261;-66
2024/04/11 09:06:32;;;;;;;7.13;2.63;;;;;;;;;;2198773;26;20825;-66
2024/04/11 09:07:34;;;;;;;4.97;1.67;;;;;;;;;;2198596;26;20217;-66
2024/04/11 09:08:35;;;;;;;11.15;2.08;;;;;;;;;;2203261;26;20675;-66
2024/04/11 09:09:38;;;;;;;5.65;1.95;;;;;;;;;;2204217;26;20675;-66
2024/04/11 09:10:40;;;;;;;11.65;2.10;;;;;;;;;;2197090;26;20517;-66
2024/04/11 09:11:43;;;;;;;8.77;1.63;;;;;;;;;;2195542;26;20751;-66
2024/04/11 09:12:47;;;;;;;7.70;1.75;;;;;;;;;;2197009;26;20282;-67
2024/04/11 09:13:50;;;;;;;9.15;1.95;;;;;;;;;;2197936;26;21130;-66
2024/04/11 09:14:51;;;;;;;9.18;2.42;;;;;;;;;;2197599;26;20214;-65
2024/04/11 09:16:00;;;;;;;8.18;1.60;;;;;;;;;;2196728;26;20595;-66
2024/04/11 09:17:02;;;;;;;10.13;1.70;;;;;;;;;;2196645;26;20220;-66
2024/04/11 09:18:03;;;;;;;12.98;1.88;;;;;;;;;;2197308;26;20218;-66
2024/04/11 09:19:07;;;;;;;6.10;2.17;;;;;;;;;;2198644;26;20225;-66
2024/04/11 09:20:12;;;;;;;7.38;1.88;;;;;;;;;;2200923;26;20295;-66
2024/04/11 09:21:14;;;;;;;6.70;1.70;;;;;;;;;;2228379;26;20208;-66
2024/04/11 09:22:21;;;;;;;10.48;2.45;;;;;;;;;;2228262;26;20728;-66
2024/04/11 09:23:23;;;;;;;7.50;1.70;;;;;;;;;;2199361;26;20517;-66
2024/04/11 09:24:25;;;;;;;8.27;1.90;;;;;;;;;;2200099;26;20220;-66
2024/04/11 09:25:26;;;;;;;17.00;2.25;;;;;;;;;;2203081;26;20286;-66
2024/04/11 09:26:28;;;;;;;4.13;1.65;;;;;;;;;;2200735;26;20722;-66
2024/04/11 09:27:30;;;;;;;6.28;1.65;;;;;;;;;;2198379;26;20222;-65
2024/04/11 09:28:32;;;;;;;6.25;1.52;;;;;;;;;;2195858;26;20241;-66
2024/04/11 09:29:35;;;;;;;6.20;1.83;;;;;;;;;;2194597;26;20663;-66
2024/04/11 09:30:39;;;;;;;7.78;2.08;;;;;;;;;;2195694;26;20294;-66
2024/04/11 09:31:42;;;;;;;6.72;1.63;;;;;;;;;;2199658;26;20229;-66
2024/04/11 09:32:44;;;;;;;5.88;1.63;;;;;;;;;;2200190;26;20226;-66
2024/04/11 09:33:53;;;;;;;7.57;1.83;;;;;;;;;;2196964;26;20318;-66
2024/04/11 09:34:56;;;;;;;4.60;2.00;;;;;;;;;;2195547;26;20304;-66
2024/04/11 09:35:58;;;;;;;8.65;1.70;;;;;;;;;;2196579;26;20462;-66
2024/04/11 09:37:03;;;;;;;7.45;1.77;;;;;;;;;;2197657;26;20263;-66
2024/04/11 09:38:10;;;;;;;6.25;1.70;;;;;;;;;;2200659;26;20222;-66
2024/04/11 09:39:12;;;;;;;8.00;1.60;;;;;;;;;;2200956;26;20323;-66
2024/04/11 09:40:19;;;;;;;7.57;1.88;;;;;;;;;;2203418;26;20248;-66
2024/04/11 09:41:24;;;;;;;10.93;2.00;;;;;;;;;;2200582;26;20293;-66
2024/04/11 09:42:27;;;;;;;8.07;2.10;;;;;;;;;;2202008;26;20268;-66
2024/04/11 09:43:28;;;;;;;7.78;1.95;;;;;;;;;;2196778;26;20272;-66
2024/04/11 09:44:31;;;;;;;11.50;2.15;;;;;;;;;;2198393;26;20232;-66
2024/04/11 09:45:35;;;;;;;12.43;1.92;;;;;;;;;;2199378;26;20261;-66
2024/04/11 09:46:41;;;;;;;6.00;1.83;;;;;;;;;;2200645;26;20221;-66
2024/04/11 09:47:47;;;;;;;4.22;1.52;;;;;;;;;;2197028;26;20257;-66
2024/04/11 09:48:49;;;;;;;6.85;1.73;;;;;;;;;;2225777;26;20212;-66
2024/04/11 09:49:55;;;;;;;5.82;1.50;;;;;;;;;;2223166;26;20223;-66
2024/04/11 09:50:57;;;;;;;6.40;1.73;;;;;;;;;;2206376;26;20684;-66
2024/04/11 09:51:59;;;;;;;6.57;1.60;;;;;;;;;;2205978;26;20229;-66
2024/04/11 09:53:00;;;;;;;5.65;1.88;;;;;;;;;;2198148;26;20264;-66
2024/04/11 09:54:03;;;;;;;10.00;2.30;;;;;;;;;;2200076;26;20226;-66
2024/04/11 09:55:07;;;;;;;4.75;1.85;;;;;;;;;;2198026;26;20218;-66
2024/04/11 09:56:11;;;;;;;7.15;1.77;;;;;;;;;;2200403;26;20300;-66
2024/04/11 09:57:14;;;;;;;12.88;2.42;;;;;;;;;;2201389;26;20428;-66
2024/04/11 09:58:20;;;;;;;9.82;2.30;;;;;;;;;;2203158;26;20226;-66
2024/04/11 09:59:21;;;;;;;10.00;2.65;;;;;;;;;;2201423;26;20221;-66
2024/04/11 10:00:48;;;;;;;7.78;2.33;;;;;;;;;;2199080;26;20320;-66
2024/04/11 10:01:47;;;;;;;5.72;1.52;;;;;;;;;;2202661;26;20262;-66
2024/04/11 10:02:54;;;;;;;9.35;1.77;;;;;;;;;;2198986;26;20228;-66
2024/04/11 10:04:00;;;;;;;7.18;1.80;;;;;;;;;;2202527;26;20260;-66
2024/04/11 10:05:05;;;;;;;5.13;1.42;;;;;;;;;;2187525;26;20218;-66
2024/04/11 10:06:14;;;;;;;5.15;1.33;;;;;;;;;;2196211;26;20758;-66
2024/04/11 10:07:23;;;;;;;7.63;1.45;;;;;;;;;;2197952;26;20222;-66
2024/04/11 10:08:27;;;;;;;6.70;2.05;;;;;;;;;;2198907;26;20217;-66
2024/04/11 10:09:29;;;;;;;6.40;1.70;;;;;;;;;;2199382;26;20224;-67
2024/04/11 10:10:33;;;;;;;7.45;1.50;;;;;;;;;;2201236;26;20357;-67
2024/04/11 10:11:35;;;;;;;10.27;1.70;;;;;;;;;;2199693;26;20680;-67
2024/04/11 10:12:39;;;;;;;9.95;2.30;;;;;;;;;;2198087;26;20209;-67
2024/04/11 10:13:42;;;;;;;9.43;2.33;;;;;;;;;;2197403;26;20260;-67
2024/04/11 10:14:44;;;;;;;6.15;1.35;;;;;;;;;;2197768;26;20535;-67
2024/04/11 10:15:47;;;;;;;8.85;1.50;;;;;;;;;;2199451;26;20253;-67
2024/04/11 10:16:51;;;;;;;5.93;1.55;;;;;;;;;;2202390;26;20267;-67
2024/04/11 10:18:10;;;;;;;6.93;1.73;;;;;;;;;;2198861;26;20345;-67
2024/04/11 10:19:21;;;;;;;5.00;2.28;;;;;;;;;;2195817;26;20531;-67
2024/04/11 10:20:23;;;;;;;8.32;1.30;;;;;;;;;;2196697;26;20618;-67
2024/04/11 10:21:26;;;;;;;9.48;1.65;;;;;;;;;;2197739;26;20226;-67
2024/04/11 10:22:44;;;;;;;21.10;8.45;;;;;;;;;;2199299;26;20239;-66
2024/04/11 10:23:48;;;;;;;5.57;1.48;;;;;;;;;;2201269;26;20725;-66
2024/04/11 10:24:50;;;;;;;10.07;2.05;;;;;;;;;;2199544;26;20210;-65
2024/04/11 10:25:51;;;;;;;13.13;3.33;;;;;;;;;;2200528;26;20710;-66
2024/04/11 10:26:54;;;;;;;4.95;1.95;;;;;;;;;;2199575;26;20347;-66
2024/04/11 10:27:56;;;;;;;4.57;1.40;;;;;;;;;;2199936;26;20282;-66
2024/04/11 10:29:00;;;;;;;9.30;1.42;;;;;;;;;;2199328;26;20218;-66
2024/04/11 10:30:05;;;;;;;4.97;1.92;;;;;;;;;;2200966;26;20229;-66
2024/04/11 10:31:08;;;;;;;4.47;1.63;;;;;;;;;;2197925;26;20668;-66
2024/04/11 10:32:12;;;;;;;5.65;2.70;;;;;;;;;;2196345;26;20225;-65
2024/04/11 10:33:14;;;;;;;6.40;1.77;;;;;;;;;;2201306;26;20285;-65
2024/04/11 10:34:25;;;;;;;12.13;2.10;;;;;;;;;;2198350;26;20226;-66
2024/04/11 10:35:28;;;;;;;7.95;1.73;;;;;;;;;;2196386;26;20260;-66
2024/04/11 10:36:32;;;;;;;7.18;1.70;;;;;;;;;;2195517;26;20619;-66
2024/04/11 10:37:39;;;;;;;11.13;1.95;;;;;;;;;;2196300;26;20268;-66
2024/04/11 10:38:41;;;;;;;4.35;1.50;;;;;;;;;;2198179;26;20258;-66
2024/04/11 10:39:44;;;;;;;7.00;1.63;;;;;;;;;;2196892;26;20260;-66
2024/04/11 10:40:46;;;;;;;6.50;1.80;;;;;;;;;;2203099;26;20303;-66
2024/04/11 10:41:51;;;;;;;13.27;2.00;;;;;;;;;;2197207;26;20261;-66
2024/04/11 10:43:12;;;;;;;7.30;1.50;;;;;;;;;;2195621;26;20214;-66
2024/04/11 10:44:14;;;;;;;7.75;1.85;;;;;;;;;;2203979;26;20561;-66
2024/04/11 10:45:17;;;;;;;5.38;1.65;;;;;;;;;;2197740;26;20344;-66
2024/04/11 10:46:21;;;;;;;11.75;2.30;;;;;;;;;;2201955;26;20268;-66
2024/04/11 10:47:25;;;;;;;8.32;2.05;;;;;;;;;;2199172;26;20559;-67
2024/04/11 10:48:27;;;;;;;6.78;1.67;;;;;;;;;;2203095;26;20685;-67
2024/04/11 10:49:29;;;;;;;13.32;2.13;;;;;;;;;;2199096;26;20672;-67
2024/04/11 10:50:32;;;;;;;8.25;2.72;;;;;;;;;;2197367;26;20529;-67
2024/04/11 10:51:37;;;;;;;7.82;2.10;;;;;;;;;;2200409;26;20217;-67
2024/04/11 10:52:39;;;;;;;10.95;2.40;;;;;;;;;;2202307;26;20420;-67
2024/04/11 10:53:47;;;;;;;5.72;2.30;;;;;;;;;;2201043;26;20296;-67
2024/04/11 10:54:59;;;;;;;8.18;2.33;;;;;;;;;;2200815;26;20225;-67
2024/04/11 10:56:20;;;;;;;13.52;2.67;;;;;;;;;;2183157;26;20247;-67
2024/04/11 10:57:22;;;;;;;8.73;1.80;;;;;;;;;;2187161;27;20217;-67
2024/04/11 10:58:28;;;;;;;10.40;1.90;;;;;;;;;;2185856;27;20229;-67
2024/04/11 10:59:32;;;;;;;13.07;2.25;;;;;;;;;;2186105;27;20601;-67
2024/04/11 11:02:02;;;;;;;7.35;2.40;;;;;;;;;;2200533;26;20245;-67
2024/04/11 11:03:32;;;;;;;10.48;2.60;;;;;;;;;;2196309;26;20230;-67
2024/04/11 11:04:32;;;;;;;11.63;2.55;;;;;;;;;;2201173;26;20213;-67
2024/04/11 11:05:33;;;;;;;9.70;2.55;;;;;;;;;;2194973;26;20253;-67
2024/04/11 11:06:43;;;;;;;11.07;2.40;;;;;;;;;;2198536;26;20249;-67
2024/04/11 11:07:48;;;;;;;5.40;2.10;;;;;;;;;;2195899;26;20218;-67
2024/04/11 11:08:54;;;;;;;8.77;2.30;;;;;;;;;;2199705;26;20218;-66
2024/04/11 11:09:57;;;;;;;5.00;1.50;;;;;;;;;;2195771;26;20663;-66
2024/04/11 11:10:59;;;;;;;11.52;2.42;;;;;;;;;;2196318;26;20324;-67
2024/04/11 11:12:01;;;;;;;19.10;2.97;;;;;;;;;;2196336;26;20221;-67
2024/04/11 11:13:04;;;;;;;5.28;2.22;;;;;;;;;;2196948;26;20263;-67
2024/04/11 11:14:08;;;;;;;11.80;2.60;;;;;;;;;;2196962;26;20323;-66
2024/04/11 11:15:13;;;;;;;13.15;3.13;;;;;;;;;;2196010;26;20675;-67
2024/04/11 11:16:20;;;;;;;9.32;1.92;;;;;;;;;;2199023;26;20250;-67
2024/04/11 11:17:22;;;;;;;7.00;2.08;;;;;;;;;;2199654;26;20538;-66
2024/04/11 11:18:24;;;;;;;12.50;3.00;;;;;;;;;;2198711;26;20220;-67
2024/04/11 11:19:30;;;;;;;8.38;2.78;;;;;;;;;;2197541;26;20268;-66
2024/04/11 11:20:31;;;;;;;8.00;2.28;;;;;;;;;;2197053;26;20249;-67
2024/04/11 11:21:33;;;;;;;7.22;2.05;;;;;;;;;;2200360;26;20221;-67
2024/04/11 11:22:37;;;;;;;5.72;1.85;;;;;;;;;;2197905;26;20256;-67
2024/04/11 11:23:38;;;;;;;8.52;4.85;;;;;;;;;;2196711;26;20226;-66
2024/04/11 11:24:42;;;;;;;11.07;4.50;;;;;;;;;;2198667;26;20289;-67
2024/04/11 11:25:46;;;;;;;27.25;12.45;;;;;;;;;;2196618;26;20663;-67
2024/04/11 11:26:48;;;;;;;5.47;3.22;;;;;;;;;;2197626;26;20226;-67
2024/04/11 11:27:51;;;;;;;12.65;2.65;;;;;;;;;;2197979;26;20225;-67
2024/04/11 11:28:53;;;;;;;7.72;2.63;;;;;;;;;;2197707;26;20251;-67
2024/04/11 11:29:56;;;;;;;11.52;2.40;;;;;;;;;;2195909;26;20225;-66
2024/04/11 11:31:00;;;;;;;7.05;2.10;;;;;;;;;;2199370;26;20651;-67
2024/04/11 11:32:01;;;;;;;9.43;3.65;;;;;;;;;;2195018;26;20260;-67
2024/04/11 11:33:05;;;;;;;11.50;2.88;;;;;;;;;;2198186;26;20319;-67
2024/04/11 11:34:11;;;;;;;13.80;3.78;;;;;;;;;;2198720;26;20794;-67
2024/04/11 11:35:12;;;;;;;15.70;3.78;;;;;;;;;;2198852;26;20737;-67
2024/04/11 11:36:14;;;;;;;5.88;1.90;;;;;;;;;;2200041;26;20326;-67
2024/04/11 11:37:21;;;;;;;9.55;2.40;;;;;;;;;;2227440;26;20214;-67
2024/04/11 11:38:23;;;;;;;7.38;2.33;;;;;;;;;;2223339;26;20685;-67
2024/04/11 11:39:27;;;;;;;14.57;2.53;;;;;;;;;;2202244;26;20213;-67
2024/04/11 11:40:46;;;;;;;10.95;2.47;;;;;;;;;;2199553;26;20311;-67
2024/04/11 11:41:48;;;;;;;8.25;2.60;;;;;;;;;;2200174;26;20254;-67
2024/04/11 11:42:49;;;;;;;8.40;3.13;;;;;;;;;;2197941;26;20222;-67
2024/04/11 11:43:54;;;;;;;6.57;2.30;;;;;;;;;;2197518;26;20221;-67
2024/04/11 11:46:26;;;;;;;10.23;2.75;;;;;;;;;;2200061;26;20224;-67
2024/04/11 11:47:34;;;;;;;7.78;2.13;;;;;;;;;;2202139;26;20221;-68
2024/04/11 11:48:37;;;;;;;14.32;3.15;;;;;;;;;;2199259;26;20304;-67
2024/04/11 11:49:39;;;;;;;10.55;2.90;;;;;;;;;;2226395;26;20223;-68
2024/04/11 11:50:41;;;;;;;8.15;2.25;;;;;;;;;;2225077;26;20352;-67
2024/04/11 11:51:44;;;;;;;7.10;2.65;;;;;;;;;;2214830;26;20263;-68
2024/04/11 11:52:49;;;;;;;8.27;2.22;;;;;;;;;;2200418;26;20283;-67
2024/04/11 11:54:00;;;;;;;11.00;2.65;;;;;;;;;;2205683;26;20271;-67
2024/04/11 11:55:03;;;;;;;4.13;2.08;;;;;;;;;;2195834;26;20295;-67
2024/04/11 11:56:05;;;;;;;5.57;2.25;;;;;;;;;;2204384;26;20221;-67
2024/04/11 11:57:17;;;;;;;12.77;2.60;;;;;;;;;;2198653;26;20536;-66
2024/04/11 11:58:19;;;;;;;10.85;2.67;;;;;;;;;;2199446;26;20222;-67
2024/04/11 11:59:20;;;;;;;8.82;3.00;;;;;;;;;;2197040;26;20225;-65
2024/04/11 12:00:23;;;;;;;10.45;2.63;;;;;;;;;;2195301;26;20336;-65
2024/04/11 12:01:35;;;;;;;10.18;2.78;;;;;;;;;;2196251;26;20248;-66
2024/04/11 12:02:40;;;;;;;8.57;2.72;;;;;;;;;;2199220;26;20323;-65
2024/04/11 12:03:44;;;;;;;6.55;2.40;;;;;;;;;;2199847;26;20267;-66
2024/04/11 12:04:45;;;;;;;10.65;2.65;;;;;;;;;;2197917;26;20226;-65
2024/04/11 12:05:51;;;;;;;8.50;2.10;;;;;;;;;;2203854;26;20328;-66
2024/04/11 12:06:55;;;;;;;12.73;2.72;;;;;;;;;;2200362;26;20312;-66
2024/04/11 12:07:58;;;;;;;6.80;2.10;;;;;;;;;;2204488;26;20334;-65
2024/04/11 12:09:31;;;;;;;7.45;1.95;;;;;;;;;;2201001;26;20287;-66
2024/04/11 12:10:29;;;;;;;7.80;2.65;;;;;;;;;;2196492;26;20244;-66
2024/04/11 12:11:34;;;;;;;5.43;2.30;;;;;;;;;;2200545;26;20261;-65
2024/04/11 12:12:35;;;;;;;9.00;2.63;;;;;;;;;;2199718;26;20292;-65
2024/04/11 12:14:02;;;;;;;7.50;2.60;;;;;;;;;;2201126;26;20299;-65
2024/04/11 12:15:05;;;;;;;12.18;2.92;;;;;;;;;;2200636;26;20487;-65
2024/04/11 12:16:06;;;;;;;8.82;3.28;;;;;;;;;;2196492;26;20856;-65
2024/04/11 12:17:10;;;;;;;22.77;3.10;;;;;;;;;;2206456;26;20674;-65
2024/04/11 12:18:14;;;;;;;8.48;2.53;;;;;;;;;;2205688;26;20220;-65
2024/04/11 12:19:16;;;;;;;11.05;2.53;;;;;;;;;;2196539;26;20228;-65
2024/04/11 12:20:17;;;;;;;6.18;2.80;;;;;;;;;;2195896;26;20646;-65
2024/04/11 12:21:26;;;;;;;13.95;3.00;;;;;;;;;;2197671;26;20221;-65
2024/04/11 12:22:33;;;;;;;8.95;2.83;;;;;;;;;;2198863;26;20797;-66
2024/04/11 12:23:35;;;;;;;8.77;2.20;;;;;;;;;;2197140;26;20331;-66
2024/04/11 12:24:39;;;;;;;5.90;2.92;;;;;;;;;;2198101;26;20235;-66
2024/04/11 12:25:41;;;;;;;14.43;3.10;;;;;;;;;;2197648;26;20256;-65
2024/04/11 12:26:43;;;;;;;14.13;2.88;;;;;;;;;;2199741;26;20742;-65
2024/04/11 12:27:46;;;;;;;10.60;2.28;;;;;;;;;;2199884;26;20214;-66
2024/04/11 12:28:47;;;;;;;8.88;2.30;;;;;;;;;;2199044;26;20216;-66
2024/04/11 12:29:49;;;;;;;10.50;2.97;;;;;;;;;;2200889;26;20267;-65
2024/04/11 12:30:58;;;;;;;10.13;2.67;;;;;;;;;;2197453;26;20249;-65
2024/04/11 12:32:03;;;;;;;5.97;2.35;;;;;;;;;;2198890;26;21115;-65
2024/04/11 12:33:05;;;;;;;7.25;1.90;;;;;;;;;;2197915;26;20244;-65
2024/04/11 12:34:09;;;;;;;8.35;2.33;;;;;;;;;;2196391;26;20264;-65
2024/04/11 12:35:11;;;;;;;13.65;2.95;;;;;;;;;;2194954;26;20217;-65
2024/04/11 12:37:36;;;;;;;12.38;3.10;;;;;;;;;;2196908;26;20220;-65
2024/04/11 12:38:39;;;;;;;7.43;2.92;;;;;;;;;;2200727;26;20220;-65
2024/04/11 12:39:45;;;;;;;9.00;2.70;;;;;;;;;;2201584;26;20272;-65
2024/04/11 12:40:48;;;;;;;9.57;2.88;;;;;;;;;;2198753;26;20341;-65
2024/04/11 12:41:50;;;;;;;13.48;2.53;;;;;;;;;;2195915;26;20222;-65
2024/04/11 12:42:56;;;;;;;6.95;2.33;;;;;;;;;;2197091;26;20225;-65
2024/04/11 12:43:57;;;;;;;5.95;2.80;;;;;;;;;;2199121;26;20217;-65
2024/04/11 12:45:07;;;;;;;5.13;2.55;;;;;;;;;;2198300;26;20226;-65
2024/04/11 12:46:09;;;;;;;12.35;2.50;;;;;;;;;;2200661;26;20224;-66
2024/04/11 12:47:13;;;;;;;16.08;2.55;;;;;;;;;;2204269;26;20234;-65
2024/04/11 12:48:16;;;;;;;8.18;3.05;;;;;;;;;;2202139;26;20218;-65
2024/04/11 12:49:20;;;;;;;11.70;3.72;;;;;;;;;;2198415;26;20226;-65
2024/04/11 12:50:24;;;;;;;10.02;2.88;;;;;;;;;;2198821;26;20263;-65
2024/04/11 12:51:30;;;;;;;10.55;2.88;;;;;;;;;;2200242;26;20214;-65
2024/04/11 12:52:32;;;;;;;15.90;3.70;;;;;;;;;;2198257;26;20260;-65
2024/04/11 12:53:35;;;;;;;7.28;3.05;;;;;;;;;;2197079;26;20268;-65
2024/04/11 12:54:36;;;;;;;6.15;2.63;;;;;;;;;;2196997;26;20252;-65
2024/04/11 12:55:38;;;;;;;7.10;2.55;;;;;;;;;;2196620;26;20253;-65
2024/04/11 12:56:44;;;;;;;7.95;3.10;;;;;;;;;;2203777;26;20259;-65
2024/04/11 12:57:51;;;;;;;7.40;2.78;;;;;;;;;;2196975;26;20214;-65
2024/04/11 12:59:00;;;;;;;14.38;3.10;;;;;;;;;;2198942;26;20212;-65
2024/04/11 13:00:35;;;;;;;6.45;2.38;;;;;;;;;;2196653;26;20264;-65
2024/04/11 13:01:25;;;;;;;11.10;3.20;;;;;;;;;;2199992;26;20214;-65
2024/04/11 13:02:30;;;;;;;7.40;3.67;;;;;;;;;;2194915;26;20225;-65
2024/04/11 13:04:49;;;;;;;9.73;2.70;;;;;;;;;;2198757;26;20222;-65
2024/04/11 13:05:53;;;;;;;9.07;2.65;;;;;;;;;;2196295;26;20555;-65
2024/04/11 13:06:58;;;;;;;9.55;2.85;;;;;;;;;;2199765;26;20213;-65
2024/04/11 13:07:59;;;;;;;11.70;3.30;;;;;;;;;;2201120;26;20224;-65
2024/04/11 13:09:17;;;;;;;6.63;3.20;;;;;;;;;;2199978;26;20221;-65
2024/04/11 13:10:18;;;;;;;11.05;3.30;;;;;;;;;;2199629;26;20248;-65
2024/04/11 13:11:36;;;;;;;12.02;3.80;;;;;;;;;;2201556;26;20264;-65
2024/04/11 13:12:43;;;;;;;9.68;2.72;;;;;;;;;;2198610;26;20264;-65
2024/04/11 13:13:52;;;;;;;14.05;3.55;;;;;;;;;;2197145;26;20264;-65
2024/04/11 13:15:09;;;;;;;10.27;3.35;;;;;;;;;;2200112;26;20638;-65
2024/04/11 13:16:11;;;;;;;11.25;2.83;;;;;;;;;;2201590;26;20330;-65
2024/04/11 13:17:13;;;;;;;12.38;3.53;;;;;;;;;;2193664;27;20269;-65
2024/04/11 13:18:28;;;;;;;8.23;3.03;;;;;;;;;;2200377;26;20694;-65
2024/04/11 13:19:34;;;;;;;12.63;3.05;;;;;;;;;;2199967;26;20217;-65
2024/04/11 13:20:37;;;;;;;9.52;2.75;;;;;;;;;;2198101;26;20248;-65
2024/04/11 13:21:39;;;;;;;5.90;2.92;;;;;;;;;;2205427;26;20255;-65
2024/04/11 13:22:48;;;;;;;7.05;2.80;;;;;;;;;;2199750;26;20743;-65
2024/04/11 13:23:51;;;;;;;8.63;2.55;;;;;;;;;;2199692;26;20733;-65
2024/04/11 13:25:10;;;;;;;12.73;2.15;;;;;;;;;;2204012;26;20868;-65
2024/04/11 13:26:16;;;;;;;7.55;2.58;;;;;;;;;;2204016;26;20318;-66
2024/04/11 13:27:28;;;;;;;10.13;2.25;;;;;;;;;;2199243;26;20268;-65